Time;durP1;ratioP1;P1;durP2;ratioP2;P2;SDS_P1;SDS_P2;PMS_P1;PMS_P2;Temp;Humidity;BMP_temperature;BMP_pressure;BME280_temperature;BME280_humidity;BME280_pressure;Samples;Min_cycle;Max_cycle;Signal;HPM_P1;HPM_P2
2022/08/22 00:01:24;;;;;;;;;;;20.80;93.10;;;;;;4965181;28;20289;-71
2022/08/22 00:03:58;;;;;;;;;;;20.70;93.20;;;;;;4969612;28;20614;-71
2022/08/22 00:06:32;;;;;;;;;;;20.70;93.40;;;;;;4964668;28;20196;-72
2022/08/22 00:09:05;;;;;;;;;;;20.70;93.40;;;;;;4967165;28;20604;-71
2022/08/22 00:11:37;;;;;;;;;;;20.70;93.30;;;;;;4963648;28;20692;-71
2022/08/22 00:14:10;;;;;;;;;;;20.70;93.40;;;;;;4972181;28;20301;-71
2022/08/22 00:16:43;;;;;;;;;;;20.60;93.50;;;;;;4972881;28;20128;-71
2022/08/22 00:19:17;;;;;;;;;;;20.60;93.80;;;;;;4973020;28;20354;-70
2022/08/22 00:21:51;;;;;;;;;;;20.50;93.80;;;;;;4972877;28;20275;-73
2022/08/22 00:24:24;;;;;;;;;;;20.60;93.90;;;;;;4968286;28;20258;-71
2022/08/22 00:26:55;;;;;;;;;;;20.50;94.10;;;;;;4963221;28;20203;-71
2022/08/22 00:29:25;;;;;;;;;;;20.50;94.10;;;;;;4962527;28;20208;-71
2022/08/22 00:32:01;;;;;;;;;;;20.40;94.20;;;;;;4965972;28;20074;-72
2022/08/22 00:34:32;;;;;;;;;;;20.40;94.70;;;;;;4964505;28;20286;-71
2022/08/22 00:37:02;;;;;;;;;;;20.50;94.30;;;;;;4962487;28;20752;-71
2022/08/22 00:39:33;;;;;;;;;;;20.50;94.40;;;;;;4963077;28;20195;-70
2022/08/22 00:42:20;;;;;;;;;;;20.50;94.50;;;;;;4964168;28;20201;-71
2022/08/22 00:45:13;;;;;;;;;;;20.50;94.70;;;;;;4968920;28;20136;-72
2022/08/22 00:47:48;;;;;;;;;;;20.50;94.70;;;;;;4963151;28;25073;-72
2022/08/22 00:50:30;;;;;;;;;;;20.40;94.70;;;;;;4962789;28;20113;-72
2022/08/22 00:53:15;;;;;;;;;;;20.40;94.80;;;;;;4981660;28;20215;-71
2022/08/22 00:55:52;;;;;;;;;;;20.50;95.70;;;;;;4966340;28;20129;-72
2022/08/22 00:58:31;;;;;;;;;;;20.60;95.30;;;;;;4967870;28;20221;-72
2022/08/22 01:01:04;;;;;;;;;;;20.60;95.30;;;;;;4969051;28;20730;-71
2022/08/22 01:03:58;;;;;;;;;;;20.60;95.50;;;;;;4967673;28;20764;-72
2022/08/22 01:06:30;;;;;;;;;;;20.50;95.00;;;;;;4967960;28;20846;-73
2022/08/22 01:09:01;;;;;;;;;;;20.40;95.20;;;;;;4964394;28;20163;-73
2022/08/22 01:11:43;;;;;;;;;;;20.30;95.30;;;;;;4966377;28;20914;-71
2022/08/22 01:14:20;;;;;;;;;;;20.20;95.80;;;;;;4961204;28;20121;-71
2022/08/22 01:17:10;;;;;;;;;;;20.20;95.70;;;;;;4963181;28;20423;-71
2022/08/22 01:20:10;;;;;;;;;;;20.20;96.70;;;;;;4962147;28;20276;-69
2022/08/22 01:22:58;;;;;;;;;;;20.20;95.70;;;;;;4971663;28;20130;-72
2022/08/22 01:25:42;;;;;;;;;;;20.30;95.80;;;;;;4971390;28;20220;-71
2022/08/22 01:28:28;;;;;;;;;;;20.20;95.90;;;;;;4964407;28;20524;-71
2022/08/22 01:31:18;;;;;;;;;;;20.20;96.10;;;;;;4969240;28;20400;-72
2022/08/22 01:34:05;;;;;;;;;;;20.10;96.20;;;;;;4967249;28;20201;-71
2022/08/22 01:36:50;;;;;;;;;;;20.10;96.10;;;;;;4966167;28;20676;-69
2022/08/22 01:39:35;;;;;;;;;;;20.10;96.30;;;;;;4969054;28;20220;-70
2022/08/22 01:42:16;;;;;;;;;;;20.20;96.60;;;;;;4966152;28;20725;-70
2022/08/22 01:45:17;;;;;;;;;;;20.10;96.30;;;;;;4969477;28;20202;-72
2022/08/22 01:47:48;;;;;;;;;;;20.20;96.20;;;;;;4907584;29;20176;-72
2022/08/22 01:50:22;;;;;;;;;;;20.10;96.30;;;;;;4909594;29;25142;-72
2022/08/22 01:52:53;;;;;;;;;;;20.10;96.70;;;;;;4936025;28;20866;-72
2022/08/22 01:55:24;;;;;;;;;;;20.10;96.50;;;;;;4970639;28;20161;-72
2022/08/22 01:57:53;;;;;;;;;;;20.00;96.50;;;;;;4965697;28;20520;-73
2022/08/22 02:00:21;;;;;;;;;;;20.10;96.60;;;;;;4967294;28;20206;-73
2022/08/22 02:03:08;;;;;;;;;;;20.00;96.60;;;;;;4969902;28;20216;-72
2022/08/22 02:05:38;;;;;;;;;;;20.00;96.60;;;;;;4966559;28;20406;-72
2022/08/22 02:08:18;;;;;;;;;;;20.00;96.70;;;;;;4968142;28;20247;-72
2022/08/22 02:10:52;;;;;;;;;;;20.00;96.70;;;;;;4981572;28;20813;-72
2022/08/22 02:13:30;;;;;;;;;;;20.10;96.80;;;;;;4966454;28;20225;-72
2022/08/22 02:16:05;;;;;;;;;;;20.10;96.80;;;;;;4966769;28;20844;-72
2022/08/22 02:18:48;;;;;;;;;;;20.00;96.90;;;;;;4970431;28;20220;-72
2022/08/22 02:21:18;;;;;;;;;;;20.00;96.90;;;;;;4970982;28;20327;-73
2022/08/22 02:23:50;;;;;;;;;;;20.00;97.00;;;;;;4966751;28;20156;-73
2022/08/22 02:26:20;;;;;;;;;;;20.00;97.10;;;;;;4970123;28;20220;-73
2022/08/22 02:28:52;;;;;;;;;;;20.00;97.80;;;;;;4970613;28;20206;-72
2022/08/22 02:31:33;;;;;;;;;;;20.00;97.10;;;;;;4974253;28;20208;-73
2022/08/22 02:34:03;;;;;;;;;;;20.00;97.30;;;;;;4973716;28;20227;-73
2022/08/22 02:36:32;;;;;;;;;;;20.00;97.20;;;;;;4970631;28;20238;-73
2022/08/22 02:39:04;;;;;;;;;;;20.00;97.90;;;;;;4964610;28;20209;-73
2022/08/22 02:41:36;;;;;;;;;;;19.90;97.30;;;;;;4967829;28;20214;-73
2022/08/22 02:44:13;;;;;;;;;;;19.90;97.40;;;;;;4961841;28;20258;-72
2022/08/22 02:46:45;;;;;;;;;;;19.90;97.50;;;;;;4967505;28;20199;-73
2022/08/22 02:49:19;;;;;;;;;;;19.90;97.50;;;;;;4962470;28;20187;-72
2022/08/22 02:51:50;;;;;;;;;;;19.90;97.50;;;;;;4969316;28;20702;-72
2022/08/22 02:54:22;;;;;;;;;;;20.00;97.60;;;;;;4966194;28;20066;-70
2022/08/22 02:56:53;;;;;;;;;;;20.10;97.50;;;;;;4964949;28;20710;-73
2022/08/22 02:59:31;;;;;;;;;;;20.00;97.20;;;;;;4959710;28;20192;-72
2022/08/22 03:02:18;;;;;;;;;;;20.00;97.20;;;;;;4964926;28;20859;-72
2022/08/22 03:04:52;;;;;;;;;;;20.10;97.30;;;;;;4966578;28;20204;-73
2022/08/22 03:07:29;;;;;;;;;;;20.00;97.40;;;;;;4969378;28;20079;-73
2022/08/22 03:10:00;;;;;;;;;;;19.90;97.60;;;;;;4966294;28;20234;-73
2022/08/22 03:12:31;;;;;;;;;;;20.00;97.90;;;;;;4966368;28;20192;-73
2022/08/22 03:15:03;;;;;;;;;;;19.90;97.90;;;;;;4965557;28;20148;-73
2022/08/22 03:17:33;;;;;;;;;;;19.80;97.90;;;;;;4980973;28;20266;-72
2022/08/22 03:20:08;;;;;;;;;;;19.80;98.20;;;;;;4966024;28;20109;-70
2022/08/22 03:22:42;;;;;;;;;;;19.80;98.00;;;;;;4966184;28;20080;-70
2022/08/22 03:25:14;;;;;;;;;;;19.80;98.20;;;;;;4966391;28;20715;-71
2022/08/22 03:27:44;;;;;;;;;;;19.80;98.60;;;;;;4963574;28;20246;-73
2022/08/22 03:30:31;;;;;;;;;;;20.00;98.10;;;;;;4964746;28;20202;-74
2022/08/22 03:33:13;;;;;;;;;;;20.00;97.80;;;;;;4968730;28;20623;-73
2022/08/22 03:35:54;;;;;;;;;;;20.00;98.00;;;;;;4968955;28;20193;-72
2022/08/22 03:38:23;;;;;;;;;;;19.90;98.00;;;;;;4966251;28;20202;-72
2022/08/22 03:41:09;;;;;;;;;;;19.70;98.30;;;;;;4965108;28;20231;-73
2022/08/22 03:43:43;;;;;;;;;;;19.70;98.50;;;;;;4960126;28;20144;-72
2022/08/22 03:46:19;;;;;;;;;;;19.80;99.40;;;;;;4961721;28;25075;-73
2022/08/22 03:49:05;;;;;;;;;;;19.80;98.50;;;;;;4964911;28;20690;-73
2022/08/22 03:51:40;;;;;;;;;;;19.70;98.90;;;;;;4967754;28;20168;-72
2022/08/22 03:54:22;;;;;;;;;;;20.20;99.20;;;;;;4970530;28;20628;-73
2022/08/22 03:57:08;;;;;;;;;;;20.60;98.50;;;;;;4963256;28;20241;-71
2022/08/22 03:59:50;;;;;;;;;;;20.80;98.00;;;;;;4964108;28;20305;-72
2022/08/22 04:02:31;;;;;;;;;;;20.90;97.40;;;;;;4968945;28;20657;-73
2022/08/22 04:05:29;;;;;;;;;;;20.70;97.20;;;;;;4965218;28;20359;-73
2022/08/22 04:08:14;;;;;;;;;;;20.70;97.30;;;;;;4970356;28;20205;-73
2022/08/22 04:10:58;;;;;;;;;;;20.50;97.30;;;;;;4946470;28;21024;-72
2022/08/22 04:13:37;;;;;;;;;;;20.60;98.00;;;;;;4963930;28;20238;-72
2022/08/22 04:16:14;;;;;;;;;;;20.50;98.10;;;;;;4964461;28;25146;-71
2022/08/22 04:19:06;;;;;;;;;;;20.70;97.70;;;;;;4967444;28;20706;-72
2022/08/22 04:21:59;;;;;;;;;;;20.70;98.00;;;;;;4961030;28;20226;-71
2022/08/22 04:24:33;;;;;;;;;;;20.70;97.30;;;;;;4964062;28;20100;-70
2022/08/22 04:27:08;;;;;;;;;;;20.50;97.80;;;;;;4959323;28;20087;-70
2022/08/22 04:29:38;;;;;;;;;;;20.30;98.00;;;;;;4963597;28;20133;-70
2022/08/22 04:32:08;;;;;;;;;;;20.10;98.70;;;;;;4964782;28;20225;-70
2022/08/22 04:34:43;;;;;;;;;;;20.00;98.60;;;;;;4961800;28;20263;-70
2022/08/22 04:37:14;;;;;;;;;;;19.90;98.50;;;;;;4962829;28;25071;-70
2022/08/22 04:39:52;;;;;;;;;;;20.00;99.00;;;;;;4963633;28;20243;-70
2022/08/22 04:42:25;;;;;;;;;;;19.90;98.90;;;;;;4964663;28;20256;-70
2022/08/22 04:45:02;;;;;;;;;;;19.80;99.30;;;;;;4963004;28;20228;-70
2022/08/22 04:47:31;;;;;;;;;;;19.90;99.20;;;;;;4963558;28;21397;-68
2022/08/22 04:50:03;;;;;;;;;;;20.00;99.20;;;;;;4966619;28;20867;-70
2022/08/22 04:52:35;;;;;;;;;;;20.00;99.20;;;;;;4963920;28;20233;-70
2022/08/22 04:55:07;;;;;;;;;;;20.00;99.40;;;;;;4965685;28;20445;-70
2022/08/22 04:57:48;;;;;;;;;;;20.00;99.80;;;;;;4962003;28;20305;-70
2022/08/22 05:00:16;;;;;;;;;;;19.90;99.50;;;;;;4964225;28;25083;-69
2022/08/22 05:02:48;;;;;;;;;;;19.50;99.90;;;;;;4959586;28;20686;-70
2022/08/22 05:05:20;;;;;;;;;;;19.50;99.90;;;;;;4960962;28;20867;-69
2022/08/22 05:07:50;;;;;;;;;;;19.40;99.90;;;;;;4961630;28;20782;-70
2022/08/22 05:10:19;;;;;;;;;;;19.20;99.90;;;;;;4962190;28;20151;-70
2022/08/22 05:12:53;;;;;;;;;;;19.40;99.90;;;;;;4963757;28;20258;-69
2022/08/22 05:15:22;;;;;;;;;;;19.40;99.90;;;;;;4964166;28;20408;-70
2022/08/22 05:17:51;;;;;;;;;;;19.30;99.90;;;;;;4960807;28;20497;-70
2022/08/22 05:20:23;;;;;;;;;;;19.40;99.90;;;;;;4961984;28;25079;-70
2022/08/22 05:22:53;;;;;;;;;;;19.30;99.90;;;;;;4962018;28;20098;-71
2022/08/22 05:25:25;;;;;;;;;;;19.20;99.90;;;;;;4961703;28;20711;-70
2022/08/22 05:28:00;;;;;;;;;;;19.20;99.90;;;;;;4959417;28;20830;-70
2022/08/22 05:30:30;;;;;;;;;;;19.20;99.90;;;;;;4963136;28;25133;-69
2022/08/22 05:33:03;;;;;;;;;;;19.00;99.90;;;;;;4960934;28;20156;-69
2022/08/22 05:35:34;;;;;;;;;;;19.00;99.90;;;;;;4960841;28;20265;-70
2022/08/22 05:38:03;;;;;;;;;;;18.90;99.90;;;;;;4963410;28;20127;-70
2022/08/22 05:40:33;;;;;;;;;;;18.90;99.90;;;;;;4959471;28;25067;-70
2022/08/22 05:43:06;;;;;;;;;;;18.90;99.90;;;;;;4963788;28;20955;-70
2022/08/22 05:45:35;;;;;;;;;;;18.90;99.90;;;;;;4962668;28;20218;-70
2022/08/22 05:48:06;;;;;;;;;;;18.90;99.90;;;;;;4959403;28;20215;-69
2022/08/22 05:50:36;;;;;;;;;;;18.90;99.90;;;;;;4962404;28;21058;-70
2022/08/22 05:53:06;;;;;;;;;;;18.90;99.90;;;;;;4960595;28;20244;-71
2022/08/22 05:55:40;;;;;;;;;;;18.90;99.90;;;;;;4962297;28;20320;-71
2022/08/22 05:58:17;;;;;;;;;;;19.00;99.90;;;;;;4958970;28;20204;-70
2022/08/22 06:00:47;;;;;;;;;;;19.00;99.90;;;;;;4962711;28;20250;-70
2022/08/22 06:03:16;;;;;;;;;;;19.00;99.90;;;;;;4977569;28;20650;-70
2022/08/22 06:05:46;;;;;;;;;;;19.20;99.90;;;;;;4960467;28;20247;-69
2022/08/22 06:08:17;;;;;;;;;;;19.20;99.90;;;;;;4974448;28;20291;-69
2022/08/22 06:10:46;;;;;;;;;;;19.30;99.90;;;;;;4962012;28;20212;-70
2022/08/22 06:13:19;;;;;;;;;;;19.40;99.90;;;;;;4960378;28;20292;-70
2022/08/22 06:15:54;;;;;;;;;;;19.50;99.90;;;;;;4962669;28;20211;-70
2022/08/22 06:18:25;;;;;;;;;;;19.60;99.90;;;;;;4976152;28;20213;-70
2022/08/22 06:20:54;;;;;;;;;;;19.60;99.90;;;;;;4959310;28;20204;-71
2022/08/22 06:23:23;;;;;;;;;;;19.80;99.90;;;;;;4974020;28;20091;-72
2022/08/22 06:25:51;;;;;;;;;;;19.90;99.90;;;;;;4974953;28;20065;-73
2022/08/22 06:28:21;;;;;;;;;;;20.10;99.90;;;;;;4971147;28;20279;-74
2022/08/22 06:30:50;;;;;;;;;;;20.10;99.90;;;;;;4972933;28;20196;-73
2022/08/22 06:33:21;;;;;;;;;;;20.10;99.90;;;;;;4971977;28;20684;-69
2022/08/22 06:38:51;;;;;;;;;;;20.10;99.90;;;;;;4971442;28;20227;-70
2022/08/22 06:41:20;;;;;;;;;;;20.20;99.90;;;;;;4972146;28;20605;-71
2022/08/22 06:43:52;;;;;;;;;;;20.20;99.90;;;;;;4988249;28;20313;-73
2022/08/22 06:46:21;;;;;;;;;;;20.30;99.90;;;;;;4970175;28;20216;-70
2022/08/22 06:48:50;;;;;;;;;;;20.50;99.90;;;;;;4970571;28;20213;-71
2022/08/22 06:51:20;;;;;;;;;;;20.70;99.90;;;;;;4972242;28;20287;-70
2022/08/22 06:53:52;;;;;;;;;;;20.80;99.90;;;;;;4970759;28;20092;-71
2022/08/22 06:56:22;;;;;;;;;;;20.70;99.90;;;;;;4972259;28;20722;-71
2022/08/22 06:58:53;;;;;;;;;;;20.60;99.90;;;;;;4970640;28;20158;-71
2022/08/22 07:01:22;;;;;;;;;;;20.60;99.90;;;;;;4973703;28;20259;-70
2022/08/22 07:03:51;;;;;;;;;;;20.70;99.90;;;;;;4972386;28;20212;-71
2022/08/22 07:06:22;;;;;;;;;;;20.60;99.90;;;;;;4974013;28;20224;-70
2022/08/22 07:08:53;;;;;;;;;;;20.50;99.90;;;;;;4973794;28;20192;-71
2022/08/22 07:11:23;;;;;;;;;;;20.50;99.90;;;;;;4973739;28;20223;-71
2022/08/22 07:13:55;;;;;;;;;;;20.50;99.90;;;;;;4972337;28;20207;-71
2022/08/22 07:16:29;;;;;;;;;;;20.50;99.90;;;;;;4973874;28;20207;-71
2022/08/22 07:18:57;;;;;;;;;;;20.60;99.90;;;;;;4988469;28;20308;-71
2022/08/22 07:21:26;;;;;;;;;;;20.70;99.90;;;;;;4973613;28;20579;-70
2022/08/22 07:23:55;;;;;;;;;;;21.00;99.90;;;;;;4987709;28;20200;-71
2022/08/22 07:26:27;;;;;;;;;;;21.30;99.90;;;;;;4973953;28;20212;-71
2022/08/22 07:28:59;;;;;;;;;;;21.40;99.90;;;;;;4972207;28;20207;-71
2022/08/22 07:31:32;;;;;;;;;;;21.60;99.90;;;;;;4973647;28;20212;-71
2022/08/22 07:34:05;;;;;;;;;;;21.70;99.90;;;;;;4973047;28;20214;-71
2022/08/22 07:36:38;;;;;;;;;;;21.80;99.90;;;;;;4988436;28;20210;-71
2022/08/22 07:39:17;;;;;;;;;;;22.00;99.90;;;;;;4972075;28;20593;-71
2022/08/22 07:41:54;;;;;;;;;;;22.20;99.90;;;;;;4972154;28;20203;-71
2022/08/22 07:44:25;;;;;;;;;;;22.40;99.90;;;;;;4972014;28;20311;-72
2022/08/22 07:46:56;;;;;;;;;;;22.70;99.90;;;;;;4988356;28;20263;-72
2022/08/22 07:49:25;;;;;;;;;;;23.10;99.90;;;;;;4972924;28;20207;-72
2022/08/22 07:51:55;;;;;;;;;;;23.40;99.90;;;;;;4988041;28;20222;-72
2022/08/22 07:54:26;;;;;;;;;;;23.70;99.90;;;;;;4972081;28;20208;-72
2022/08/22 07:56:56;;;;;;;;;;;23.90;99.30;;;;;;4972078;28;20232;-72
2022/08/22 07:59:27;;;;;;;;;;;24.00;98.90;;;;;;4972414;28;20272;-71
2022/08/22 08:01:57;;;;;;;;;;;23.70;99.10;;;;;;4973042;28;20688;-72
2022/08/22 08:04:25;;;;;;;;;;;23.60;99.10;;;;;;4987632;28;20669;-72
2022/08/22 08:06:55;;;;;;;;;;;23.60;99.40;;;;;;4971888;28;20687;-71
2022/08/22 08:09:24;;;;;;;;;;;23.90;99.20;;;;;;4971656;28;20229;-72
2022/08/22 08:11:53;;;;;;;;;;;24.00;98.60;;;;;;4971690;28;20205;-70
2022/08/22 08:14:22;;;;;;;;;;;24.20;98.90;;;;;;4972447;28;20204;-72
2022/08/22 08:16:56;;;;;;;;;;;24.40;98.30;;;;;;4971801;28;20235;-72
2022/08/22 08:19:24;;;;;;;;;;;24.60;97.80;;;;;;4972960;28;20218;-71
2022/08/22 08:21:54;;;;;;;;;;;24.30;97.70;;;;;;4972718;28;20204;-72
2022/08/22 08:24:24;;;;;;;;;;;24.10;98.20;;;;;;4971588;28;20211;-71
2022/08/22 08:29:41;;;;;;;;;;;23.60;98.70;;;;;;4972483;28;20263;-70
2022/08/22 08:32:12;;;;;;;;;;;23.50;98.80;;;;;;4972861;28;20216;-71
2022/08/22 08:34:42;;;;;;;;;;;23.50;99.10;;;;;;4972797;28;20240;-71
2022/08/22 08:37:14;;;;;;;;;;;23.70;99.80;;;;;;4971494;28;20212;-72
2022/08/22 08:39:44;;;;;;;;;;;24.00;99.00;;;;;;4972359;28;20670;-71
2022/08/22 08:42:19;;;;;;;;;;;24.30;98.50;;;;;;4972901;28;20200;-72
2022/08/22 08:45:01;;;;;;;;;;;24.40;98.20;;;;;;4972502;28;20211;-71
2022/08/22 08:47:42;;;;;;;;;;;24.40;98.40;;;;;;4971592;28;20578;-72
2022/08/22 08:50:21;;;;;;;;;;;24.30;98.40;;;;;;4970884;28;20220;-72
2022/08/22 08:52:58;;;;;;;;;;;24.30;99.30;;;;;;4972780;28;20263;-71
2022/08/22 08:55:32;;;;;;;;;;;24.20;97.90;;;;;;4972773;28;20695;-71
2022/08/22 08:58:10;;;;;;;;;;;24.30;98.20;;;;;;4971290;28;20212;-71
2022/08/22 09:00:50;;;;;;;;;;;24.30;98.40;;;;;;4970513;28;20203;-71
2022/08/22 09:03:28;;;;;;;;;;;24.00;98.60;;;;;;4971410;28;20483;-71
2022/08/22 09:06:08;;;;;;;;;;;24.30;98.70;;;;;;4972726;28;20223;-71
2022/08/22 09:08:51;;;;;;;;;;;24.70;98.30;;;;;;4987519;28;20295;-72
2022/08/22 09:11:35;;;;;;;;;;;25.30;98.00;;;;;;4970887;28;20674;-72
2022/08/22 09:14:12;;;;;;;;;;;25.80;96.40;;;;;;4972627;28;20244;-71
2022/08/22 09:16:47;;;;;;;;;;;26.00;96.20;;;;;;4974107;28;20229;-72
2022/08/22 09:19:47;;;;;;;;;;;26.30;95.60;;;;;;4975332;28;20211;-72
2022/08/22 09:22:33;;;;;;;;;;;26.40;95.80;;;;;;4974625;28;20232;-72
2022/08/22 09:25:22;;;;;;;;;;;26.60;95.40;;;;;;4966938;28;20297;-72
2022/08/22 09:27:55;;;;;;;;;;;26.80;95.30;;;;;;4974592;28;20576;-71
2022/08/22 09:30:25;;;;;;;;;;;27.00;94.50;;;;;;4975336;28;20535;-72
2022/08/22 09:32:58;;;;;;;;;;;27.40;94.50;;;;;;4974679;28;20558;-71
2022/08/22 09:35:32;;;;;;;;;;;28.00;94.70;;;;;;4975625;28;20300;-72
2022/08/22 09:38:12;;;;;;;;;;;28.20;94.40;;;;;;4974288;28;20299;-71
2022/08/22 09:40:43;;;;;;;;;;;28.40;93.30;;;;;;4975285;28;20276;-71
2022/08/22 09:43:14;;;;;;;;;;;28.70;93.40;;;;;;4974266;28;20617;-71
2022/08/22 09:45:51;;;;;;;;;;;28.70;92.10;;;;;;4990715;28;20639;-71
2022/08/22 09:48:37;;;;;;;;;;;28.80;92.10;;;;;;4974997;28;20201;-71
2022/08/22 09:51:13;;;;;;;;;;;29.00;92.20;;;;;;4975280;28;20286;-71
2022/08/22 09:54:06;;;;;;;;;;;29.10;91.50;;;;;;4974264;28;20294;-70
2022/08/22 09:56:38;;;;;;;;;;;29.20;91.30;;;;;;4990186;28;20269;-71
2022/08/22 09:59:09;;;;;;;;;;;29.40;91.00;;;;;;4975109;28;20205;-71
2022/08/22 10:01:40;;;;;;;;;;;29.40;91.10;;;;;;4974886;28;20203;-71
2022/08/22 10:04:31;;;;;;;;;;;29.60;90.50;;;;;;4973562;28;20200;-71
2022/08/22 10:07:04;;;;;;;;;;;29.80;90.40;;;;;;4973925;28;20204;-71
2022/08/22 10:09:42;;;;;;;;;;;30.00;90.10;;;;;;4974858;28;20215;-71
2022/08/22 10:12:15;;;;;;;;;;;29.90;90.00;;;;;;4974983;28;20235;-71
2022/08/22 10:14:51;;;;;;;;;;;30.20;90.20;;;;;;4972680;28;20287;-71
2022/08/22 10:17:27;;;;;;;;;;;30.40;88.60;;;;;;4974783;28;20232;-71
2022/08/22 10:19:58;;;;;;;;;;;30.50;87.60;;;;;;4974549;28;20197;-71
2022/08/22 10:22:34;;;;;;;;;;;30.80;87.80;;;;;;4974950;28;20219;-70
2022/08/22 10:25:06;;;;;;;;;;;31.10;86.60;;;;;;4974333;28;20743;-71
2022/08/22 10:27:41;;;;;;;;;;;31.00;85.40;;;;;;4974137;28;20192;-72
2022/08/22 10:30:10;;;;;;;;;;;31.10;84.20;;;;;;4974323;28;20204;-71
2022/08/22 10:32:41;;;;;;;;;;;30.90;83.80;;;;;;4974801;28;20279;-70
2022/08/22 10:35:13;;;;;;;;;;;30.80;82.80;;;;;;4974672;28;20192;-71
2022/08/22 10:37:48;;;;;;;;;;;31.10;82.60;;;;;;4974698;28;20226;-71
2022/08/22 10:40:21;;;;;;;;;;;31.30;82.70;;;;;;4973952;28;20211;-71
2022/08/22 10:42:51;;;;;;;;;;;31.30;81.20;;;;;;4973970;28;20205;-71
2022/08/22 10:45:26;;;;;;;;;;;31.40;81.00;;;;;;4974148;28;20247;-71
2022/08/22 10:48:21;;;;;;;;;;;31.30;81.00;;;;;;4974476;28;20195;-71
2022/08/22 10:50:50;;;;;;;;;;;31.10;80.70;;;;;;4973615;28;20208;-71
2022/08/22 10:53:32;;;;;;;;;;;30.20;80.00;;;;;;4974371;28;20252;-71
2022/08/22 10:56:10;;;;;;;;;;;29.90;81.20;;;;;;4955029;29;20661;-71
2022/08/22 10:58:39;;;;;;;;;;;30.20;79.80;;;;;;4954810;29;20668;-67
2022/08/22 11:01:13;;;;;;;;;;;30.10;80.10;;;;;;4954530;29;20188;-71
2022/08/22 11:04:05;;;;;;;;;;;29.80;81.30;;;;;;4955126;29;20215;-71
2022/08/22 11:06:37;;;;;;;;;;;29.50;81.80;;;;;;4954794;29;20575;-71
2022/08/22 11:09:15;;;;;;;;;;;29.30;80.80;;;;;;4967534;28;20202;-70
2022/08/22 11:11:45;;;;;;;;;;;29.20;81.60;;;;;;4973562;28;20196;-71
2022/08/22 11:14:32;;;;;;;;;;;29.30;79.80;;;;;;4974008;28;20231;-71
2022/08/22 11:17:05;;;;;;;;;;;29.80;80.60;;;;;;4973900;28;20210;-71
2022/08/22 11:20:01;;;;;;;;;;;30.10;79.30;;;;;;4973550;28;20246;-71
2022/08/22 11:22:32;;;;;;;;;;;29.80;78.90;;;;;;4973429;28;20196;-71
2022/08/22 11:25:21;;;;;;;;;;;29.50;79.50;;;;;;4973463;28;20200;-70
2022/08/22 11:28:26;;;;;;;;;;;29.00;79.10;;;;;;4973761;28;20196;-71
2022/08/22 11:31:02;;;;;;;;;;;28.70;78.60;;;;;;4973683;28;20196;-73
2022/08/22 11:33:37;;;;;;;;;;;28.60;80.00;;;;;;4973793;28;20692;-72
2022/08/22 11:36:31;;;;;;;;;;;28.50;79.00;;;;;;4973378;28;20258;-73
2022/08/22 11:39:04;;;;;;;;;;;28.50;79.10;;;;;;4972583;28;20291;-71
2022/08/22 11:41:39;;;;;;;;;;;29.20;79.80;;;;;;4973369;28;20193;-71
2022/08/22 11:44:11;;;;;;;;;;;29.80;79.70;;;;;;4973464;28;20275;-71
2022/08/22 11:46:40;;;;;;;;;;;30.10;77.10;;;;;;4973355;28;20317;-71
2022/08/22 11:49:26;;;;;;;;;;;30.00;77.40;;;;;;4973346;28;20207;-71
2022/08/22 11:52:10;;;;;;;;;;;29.70;77.20;;;;;;4972668;28;20201;-71
2022/08/22 11:55:02;;;;;;;;;;;29.60;77.80;;;;;;4973202;28;20199;-71
2022/08/22 11:57:32;;;;;;;;;;;29.80;78.70;;;;;;4971995;28;20203;-70
2022/08/22 12:00:07;;;;;;;;;;;30.00;77.40;;;;;;4972863;28;20677;-71
2022/08/22 12:02:41;;;;;;;;;;;30.60;76.50;;;;;;4973286;28;20184;-71
2022/08/22 12:05:13;;;;;;;;;;;31.10;75.40;;;;;;4973015;28;20671;-71
2022/08/22 12:07:54;;;;;;;;;;;31.50;74.30;;;;;;4973371;28;20201;-71
2022/08/22 12:10:28;;;;;;;;;;;31.80;72.60;;;;;;4972799;28;20198;-71
2022/08/22 12:12:59;;;;;;;;;;;32.30;73.80;;;;;;4973256;28;20199;-71
2022/08/22 12:15:33;;;;;;;;;;;32.80;73.40;;;;;;4973199;28;20616;-71
2022/08/22 12:18:19;;;;;;;;;;;33.10;72.50;;;;;;4972415;28;20223;-70
2022/08/22 12:21:06;;;;;;;;;;;33.30;69.50;;;;;;4972692;28;20193;-70
2022/08/22 12:24:02;;;;;;;;;;;33.50;69.30;;;;;;5059250;23;20211;-66
2022/08/22 12:26:44;;;;;;;;;;;33.70;69.50;;;;;;5004598;28;20230;-67
2022/08/22 12:29:19;;;;;;;;;;;33.80;68.50;;;;;;5051480;28;20508;-66
2022/08/22 12:32:19;;;;;;;;;;;33.90;66.80;;;;;;5051135;28;20184;-65
2022/08/22 12:34:59;;;;;;;;;;;34.00;66.90;;;;;;5031801;28;20165;-66
2022/08/22 12:37:29;;;;;;;;;;;34.10;66.00;;;;;;5031706;28;20542;-67
2022/08/22 12:40:12;;;;;;;;;;;34.30;66.40;;;;;;5031458;28;20165;-66
2022/08/22 12:42:48;;;;;;;;;;;34.50;65.50;;;;;;5031350;28;20207;-67
2022/08/22 12:45:22;;;;;;;;;;;34.80;65.30;;;;;;5031749;28;20172;-67
2022/08/22 12:48:08;;;;;;;;;;;34.40;64.70;;;;;;5045968;28;20176;-67
2022/08/22 12:50:41;;;;;;;;;;;34.90;64.10;;;;;;5054516;28;20534;-66
2022/08/22 12:53:15;;;;;;;;;;;35.10;64.30;;;;;;5055211;28;20175;-67
2022/08/22 12:55:56;;;;;;;;;;;34.60;64.50;;;;;;5055322;28;20686;-66
2022/08/22 12:58:29;;;;;;;;;;;34.00;64.70;;;;;;5055199;28;20178;-66
2022/08/22 13:01:04;;;;;;;;;;;33.90;65.70;;;;;;5054039;28;20337;-66
2022/08/22 13:03:35;;;;;;;;;;;33.70;64.10;;;;;;5055010;28;20228;-66
2022/08/22 13:06:05;;;;;;;;;;;33.80;65.10;;;;;;5055143;28;20656;-66
2022/08/22 13:08:42;;;;;;;;;;;33.80;64.60;;;;;;5055062;28;20536;-66
2022/08/22 13:11:12;;;;;;;;;;;34.00;63.60;;;;;;5054559;28;20165;-66
2022/08/22 13:13:52;;;;;;;;;;;33.80;63.30;;;;;;5054749;28;20245;-66
2022/08/22 13:16:24;;;;;;;;;;;33.50;63.50;;;;;;5054692;28;20165;-66
2022/08/22 13:18:55;;;;;;;;;;;33.20;64.20;;;;;;5054764;28;20169;-67
2022/08/22 13:21:26;;;;;;;;;;;33.00;65.20;;;;;;5054533;28;20162;-66
2022/08/22 13:24:05;;;;;;;;;;;33.40;64.90;;;;;;5053968;28;20208;-66
2022/08/22 13:26:45;;;;;;;;;;;34.20;63.80;;;;;;5054639;28;20180;-66
2022/08/22 13:29:18;;;;;;;;;;;34.80;63.10;;;;;;5054442;28;20728;-67
2022/08/22 13:31:57;;;;;;;;;;;35.20;62.10;;;;;;5054270;28;20206;-66
2022/08/22 13:34:32;;;;;;;;;;;35.00;61.50;;;;;;5054567;28;20176;-66
2022/08/22 13:37:07;;;;;;;;;;;34.60;62.70;;;;;;5054589;28;20176;-66
2022/08/22 13:39:38;;;;;;;;;;;33.50;62.40;;;;;;5054140;28;20186;-66
2022/08/22 13:42:06;;;;;;;;;;;33.00;63.00;;;;;;5054179;28;20180;-66
2022/08/22 13:44:49;;;;;;;;;;;32.40;63.20;;;;;;5054302;28;20190;-67
2022/08/22 13:47:18;;;;;;;;;;;32.30;63.60;;;;;;5054293;28;20228;-66
2022/08/22 13:49:53;;;;;;;;;;;32.70;65.90;;;;;;5054013;28;20172;-66
2022/08/22 13:52:26;;;;;;;;;;;33.20;65.20;;;;;;5054203;28;20227;-67
2022/08/22 13:54:59;;;;;;;;;;;33.70;63.90;;;;;;5054167;28;20190;-66
2022/08/22 13:57:31;;;;;;;;;;;34.10;62.70;;;;;;5053652;28;20170;-66
2022/08/22 14:00:03;;;;;;;;;;;34.30;62.60;;;;;;5053934;28;20753;-67
2022/08/22 14:02:38;;;;;;;;;;;34.20;62.00;;;;;;5053340;28;20188;-66
2022/08/22 14:05:16;;;;;;;;;;;34.10;62.30;;;;;;5053996;28;20579;-67
2022/08/22 14:07:47;;;;;;;;;;;33.60;62.40;;;;;;5053486;28;20541;-66
2022/08/22 14:10:22;;;;;;;;;;;33.40;61.50;;;;;;5053320;28;20682;-66
2022/08/22 14:13:16;;;;;;;;;;;33.90;62.40;;;;;;5053849;28;20181;-66
2022/08/22 14:15:44;;;;;;;;;;;34.20;61.00;;;;;;5053990;28;20193;-66
2022/08/22 14:18:14;;;;;;;;;;;34.50;61.10;;;;;;5053675;28;20180;-67
2022/08/22 14:20:46;;;;;;;;;;;35.10;60.20;;;;;;5053601;28;20501;-67
2022/08/22 14:23:17;;;;;;;;;;;35.70;60.70;;;;;;5052792;28;20739;-66
2022/08/22 14:25:45;;;;;;;;;;;35.30;59.60;;;;;;5033344;28;20189;-67
2022/08/22 14:28:21;;;;;;;;;;;35.00;59.50;;;;;;5034227;28;20196;-67
2022/08/22 14:30:56;;;;;;;;;;;34.70;59.30;;;;;;5033129;28;20162;-66
2022/08/22 14:33:31;;;;;;;;;;;34.00;59.70;;;;;;5033266;28;20197;-65
2022/08/22 14:36:04;;;;;;;;;;;33.80;59.70;;;;;;5038300;28;20624;-66
2022/08/22 14:38:35;;;;;;;;;;;33.30;60.80;;;;;;5053238;28;20169;-66
2022/08/22 14:41:05;;;;;;;;;;;33.50;60.70;;;;;;5053059;28;20228;-66
2022/08/22 14:43:51;;;;;;;;;;;33.80;61.00;;;;;;5053046;28;20181;-67
2022/08/22 14:46:20;;;;;;;;;;;33.90;59.80;;;;;;5053363;28;20168;-66
2022/08/22 14:49:05;;;;;;;;;;;33.70;59.70;;;;;;5053240;28;20175;-66
2022/08/22 14:51:38;;;;;;;;;;;33.60;59.80;;;;;;5052111;28;20225;-66
2022/08/22 14:54:09;;;;;;;;;;;32.90;60.30;;;;;;5052632;28;20576;-66
2022/08/22 14:56:48;;;;;;;;;;;33.00;61.10;;;;;;5052934;28;20329;-67
2022/08/22 14:59:30;;;;;;;;;;;33.30;61.20;;;;;;5052829;28;20178;-66
2022/08/22 15:02:00;;;;;;;;;;;33.60;59.60;;;;;;5052571;28;20185;-66
2022/08/22 15:04:33;;;;;;;;;;;33.90;60.00;;;;;;5052378;28;20185;-67
2022/08/22 15:07:03;;;;;;;;;;;34.20;59.50;;;;;;5052750;28;20160;-66
2022/08/22 15:09:33;;;;;;;;;;;34.30;59.40;;;;;;5052694;28;20174;-66